sensor_id;sensor_type;location;lat;lon;timestamp;P1;durP1;ratioP1;P2;durP2;ratioP2
13419;SDS011;6781;58.440;15.470;2023-04-25T00:00:51;1.90;;;1.70;;
13419;SDS011;6781;58.440;15.470;2023-04-25T00:03:18;1.83;;;1.60;;
13419;SDS011;6781;58.440;15.470;2023-04-25T00:05:46;2.40;;;1.70;;
13419;SDS011;6781;58.440;15.470;2023-04-25T00:08:13;1.97;;;1.60;;
13419;SDS011;6781;58.440;15.470;2023-04-25T00:10:40;1.60;;;1.40;;
13419;SDS011;6781;58.440;15.470;2023-04-25T00:13:09;1.53;;;1.20;;
13419;SDS011;6781;58.440;15.470;2023-04-25T00:15:36;1.37;;;1.23;;
13419;SDS011;6781;58.440;15.470;2023-04-25T00:18:03;1.80;;;1.43;;
13419;SDS011;6781;58.440;15.470;2023-04-25T00:20:31;2.07;;;1.33;;
13419;SDS011;6781;58.440;15.470;2023-04-25T00:22:58;1.40;;;1.30;;
13419;SDS011;6781;58.440;15.470;2023-04-25T00:25:25;1.33;;;1.23;;
13419;SDS011;6781;58.440;15.470;2023-04-25T00:27:52;1.47;;;1.20;;
13419;SDS011;6781;58.440;15.470;2023-04-25T00:30:21;2.03;;;1.37;;
13419;SDS011;6781;58.440;15.470;2023-04-25T00:32:48;1.40;;;1.30;;
13419;SDS011;6781;58.440;15.470;2023-04-25T00:35:15;1.20;;;1.17;;
13419;SDS011;6781;58.440;15.470;2023-04-25T00:37:42;1.23;;;1.20;;
13419;SDS011;6781;58.440;15.470;2023-04-25T00:40:10;1.50;;;1.40;;
13419;SDS011;6781;58.440;15.470;2023-04-25T00:42:37;1.40;;;1.30;;
13419;SDS011;6781;58.440;15.470;2023-04-25T00:45:05;1.30;;;1.20;;
13419;SDS011;6781;58.440;15.470;2023-04-25T00:47:37;1.93;;;1.33;;
13419;SDS011;6781;58.440;15.470;2023-04-25T00:50:06;1.40;;;1.30;;
13419;SDS011;6781;58.440;15.470;2023-04-25T00:52:34;2.03;;;1.60;;
13419;SDS011;6781;58.440;15.470;2023-04-25T00:55:01;1.60;;;1.50;;
13419;SDS011;6781;58.440;15.470;2023-04-25T00:57:29;1.73;;;1.63;;
13419;SDS011;6781;58.440;15.470;2023-04-25T00:59:56;1.47;;;1.27;;
13419;SDS011;6781;58.440;15.470;2023-04-25T01:02:23;1.70;;;1.60;;
13419;SDS011;6781;58.440;15.470;2023-04-25T01:04:52;1.43;;;1.33;;
13419;SDS011;6781;58.440;15.470;2023-04-25T01:07:20;2.00;;;1.67;;
13419;SDS011;6781;58.440;15.470;2023-04-25T01:09:47;1.97;;;1.57;;
13419;SDS011;6781;58.440;15.470;2023-04-25T01:12:14;2.30;;;1.90;;
13419;SDS011;6781;58.440;15.470;2023-04-25T01:14:41;1.90;;;1.70;;
13419;SDS011;6781;58.440;15.470;2023-04-25T01:17:08;1.90;;;1.80;;
13419;SDS011;6781;58.440;15.470;2023-04-25T01:19:36;2.00;;;1.77;;
13419;SDS011;6781;58.440;15.470;2023-04-25T01:22:05;2.10;;;2.00;;
13419;SDS011;6781;58.440;15.470;2023-04-25T01:24:32;1.93;;;1.83;;
13419;SDS011;6781;58.440;15.470;2023-04-25T01:26:59;1.90;;;1.80;;
13419;SDS011;6781;58.440;15.470;2023-04-25T01:29:28;2.00;;;1.90;;
13419;SDS011;6781;58.440;15.470;2023-04-25T01:31:55;2.40;;;2.20;;
13419;SDS011;6781;58.440;15.470;2023-04-25T01:34:23;2.20;;;2.00;;
13419;SDS011;6781;58.440;15.470;2023-04-25T01:36:51;1.70;;;1.60;;
13419;SDS011;6781;58.440;15.470;2023-04-25T01:39:21;2.23;;;2.03;;
13419;SDS011;6781;58.440;15.470;2023-04-25T01:41:51;2.10;;;2.00;;
13419;SDS011;6781;58.440;15.470;2023-04-25T01:44:18;1.93;;;1.83;;
13419;SDS011;6781;58.440;15.470;2023-04-25T01:46:45;3.30;;;2.00;;
13419;SDS011;6781;58.440;15.470;2023-04-25T01:49:12;2.27;;;2.10;;
13419;SDS011;6781;58.440;15.470;2023-04-25T01:51:39;2.40;;;2.20;;
13419;SDS011;6781;58.440;15.470;2023-04-25T01:54:07;2.23;;;2.03;;
13419;SDS011;6781;58.440;15.470;2023-04-25T01:56:37;2.80;;;2.00;;
13419;SDS011;6781;58.440;15.470;2023-04-25T01:59:05;1.93;;;1.83;;
13419;SDS011;6781;58.440;15.470;2023-04-25T02:01:32;2.17;;;1.80;;
13419;SDS011;6781;58.440;15.470;2023-04-25T02:03:59;2.07;;;1.97;;
13419;SDS011;6781;58.440;15.470;2023-04-25T02:09:02;2.23;;;2.07;;
13419;SDS011;6781;58.440;15.470;2023-04-25T02:11:29;1.80;;;1.70;;
13419;SDS011;6781;58.440;15.470;2023-04-25T02:13:57;1.87;;;1.77;;
13419;SDS011;6781;58.440;15.470;2023-04-25T02:16:24;2.30;;;1.60;;
13419;SDS011;6781;58.440;15.470;2023-04-25T02:18:52;1.73;;;1.63;;
13419;SDS011;6781;58.440;15.470;2023-04-25T02:21:19;2.43;;;1.50;;
13419;SDS011;6781;58.440;15.470;2023-04-25T02:23:46;1.70;;;1.60;;
13419;SDS011;6781;58.440;15.470;2023-04-25T02:26:14;1.60;;;1.50;;
13419;SDS011;6781;58.440;15.470;2023-04-25T02:28:41;1.83;;;1.73;;
13419;SDS011;6781;58.440;15.470;2023-04-25T02:31:12;1.80;;;1.70;;
13419;SDS011;6781;58.440;15.470;2023-04-25T02:33:41;2.40;;;1.70;;
13419;SDS011;6781;58.440;15.470;2023-04-25T02:36:09;1.50;;;1.40;;
13419;SDS011;6781;58.440;15.470;2023-04-25T02:38:36;1.40;;;1.30;;
13419;SDS011;6781;58.440;15.470;2023-04-25T02:41:03;1.63;;;1.33;;
13419;SDS011;6781;58.440;15.470;2023-04-25T02:43:31;1.20;;;1.20;;
13419;SDS011;6781;58.440;15.470;2023-04-25T02:45:58;1.80;;;1.30;;
13419;SDS011;6781;58.440;15.470;2023-04-25T02:48:27;1.37;;;1.30;;
13419;SDS011;6781;58.440;15.470;2023-04-25T02:50:54;1.33;;;1.23;;
13419;SDS011;6781;58.440;15.470;2023-04-25T02:53:21;1.40;;;1.30;;
13419;SDS011;6781;58.440;15.470;2023-04-25T02:55:48;1.80;;;1.20;;
13419;SDS011;6781;58.440;15.470;2023-04-25T02:58:17;1.73;;;1.00;;
13419;SDS011;6781;58.440;15.470;2023-04-25T03:00:44;1.00;;;0.90;;
13419;SDS011;6781;58.440;15.470;2023-04-25T03:03:11;1.27;;;1.10;;
13419;SDS011;6781;58.440;15.470;2023-04-25T03:05:40;1.00;;;0.90;;
13419;SDS011;6781;58.440;15.470;2023-04-25T03:08:07;2.30;;;0.90;;
13419;SDS011;6781;58.440;15.470;2023-04-25T03:10:34;1.13;;;0.87;;
13419;SDS011;6781;58.440;15.470;2023-04-25T03:13:01;1.17;;;1.07;;
13419;SDS011;6781;58.440;15.470;2023-04-25T03:15:28;1.03;;;1.03;;
13419;SDS011;6781;58.440;15.470;2023-04-25T03:17:56;1.47;;;1.00;;
13419;SDS011;6781;58.440;15.470;2023-04-25T03:20:23;1.00;;;0.90;;
13419;SDS011;6781;58.440;15.470;2023-04-25T03:22:51;0.87;;;0.87;;
13419;SDS011;6781;58.440;15.470;2023-04-25T03:25:19;1.40;;;1.10;;
13419;SDS011;6781;58.440;15.470;2023-04-25T03:27:46;0.80;;;0.80;;
13419;SDS011;6781;58.440;15.470;2023-04-25T03:30:14;0.70;;;0.70;;
13419;SDS011;6781;58.440;15.470;2023-04-25T03:32:41;0.80;;;0.80;;
13419;SDS011;6781;58.440;15.470;2023-04-25T03:35:08;1.47;;;0.83;;
13419;SDS011;6781;58.440;15.470;2023-04-25T03:37:35;1.00;;;1.00;;
13419;SDS011;6781;58.440;15.470;2023-04-25T03:40:04;0.97;;;0.97;;
13419;SDS011;6781;58.440;15.470;2023-04-25T03:42:32;0.70;;;0.70;;
13419;SDS011;6781;58.440;15.470;2023-04-25T03:45:00;0.80;;;0.80;;
13419;SDS011;6781;58.440;15.470;2023-04-25T03:47:31;0.80;;;0.80;;
13419;SDS011;6781;58.440;15.470;2023-04-25T03:50:01;0.87;;;0.87;;
13419;SDS011;6781;58.440;15.470;2023-04-25T03:52:34;0.87;;;0.87;;
13419;SDS011;6781;58.440;15.470;2023-04-25T03:55:01;0.90;;;0.90;;
13419;SDS011;6781;58.440;15.470;2023-04-25T03:57:43;1.33;;;1.23;;
13419;SDS011;6781;58.440;15.470;2023-04-25T04:00:53;1.13;;;0.90;;
13419;SDS011;6781;58.440;15.470;2023-04-25T04:03:41;2.33;;;1.37;;
13419;SDS011;6781;58.440;15.470;2023-04-25T04:06:08;1.23;;;1.13;;
13419;SDS011;6781;58.440;15.470;2023-04-25T04:08:35;1.20;;;1.20;;
13419;SDS011;6781;58.440;15.470;2023-04-25T04:11:03;2.27;;;1.30;;
13419;SDS011;6781;58.440;15.470;2023-04-25T04:13:31;3.90;;;1.30;;
13419;SDS011;6781;58.440;15.470;2023-04-25T04:15:58;2.33;;;1.67;;
13419;SDS011;6781;58.440;15.470;2023-04-25T04:18:25;1.80;;;1.60;;
13419;SDS011;6781;58.440;15.470;2023-04-25T04:20:52;4.77;;;2.00;;
13419;SDS011;6781;58.440;15.470;2023-04-25T04:23:19;1.93;;;1.17;;
13419;SDS011;6781;58.440;15.470;2023-04-25T04:25:47;2.07;;;1.50;;
13419;SDS011;6781;58.440;15.470;2023-04-25T04:28:14;2.83;;;1.57;;
13419;SDS011;6781;58.440;15.470;2023-04-25T04:30:44;6.03;;;2.03;;
13419;SDS011;6781;58.440;15.470;2023-04-25T04:33:12;1.60;;;1.50;;
13419;SDS011;6781;58.440;15.470;2023-04-25T04:35:40;1.50;;;1.40;;
13419;SDS011;6781;58.440;15.470;2023-04-25T04:38:08;1.63;;;1.50;;
13419;SDS011;6781;58.440;15.470;2023-04-25T04:40:36;2.60;;;1.57;;
13419;SDS011;6781;58.440;15.470;2023-04-25T04:43:03;1.90;;;1.70;;
13419;SDS011;6781;58.440;15.470;2023-04-25T04:45:30;1.80;;;1.70;;
13419;SDS011;6781;58.440;15.470;2023-04-25T04:48:00;2.13;;;1.57;;
13419;SDS011;6781;58.440;15.470;2023-04-25T04:50:27;1.77;;;1.67;;
13419;SDS011;6781;58.440;15.470;2023-04-25T04:52:54;2.07;;;1.50;;
13419;SDS011;6781;58.440;15.470;2023-04-25T04:55:21;1.63;;;1.53;;
13419;SDS011;6781;58.440;15.470;2023-04-25T04:57:48;1.67;;;1.57;;
13419;SDS011;6781;58.440;15.470;2023-04-25T05:00:19;2.20;;;1.73;;
13419;SDS011;6781;58.440;15.470;2023-04-25T05:02:47;2.33;;;1.80;;
13419;SDS011;6781;58.440;15.470;2023-04-25T05:05:17;5.60;;;2.20;;
13419;SDS011;6781;58.440;15.470;2023-04-25T05:07:44;1.97;;;1.87;;
13419;SDS011;6781;58.440;15.470;2023-04-25T05:10:11;1.87;;;1.50;;
13419;SDS011;6781;58.440;15.470;2023-04-25T05:12:39;2.57;;;2.00;;
13419;SDS011;6781;58.440;15.470;2023-04-25T05:15:06;2.20;;;2.00;;
13419;SDS011;6781;58.440;15.470;2023-04-25T05:17:34;2.43;;;2.20;;
13419;SDS011;6781;58.440;15.470;2023-04-25T05:20:01;2.57;;;2.30;;
13419;SDS011;6781;58.440;15.470;2023-04-25T05:22:32;2.37;;;2.03;;
13419;SDS011;6781;58.440;15.470;2023-04-25T05:24:59;2.30;;;2.10;;
13419;SDS011;6781;58.440;15.470;2023-04-25T05:27:26;3.33;;;2.30;;
13419;SDS011;6781;58.440;15.470;2023-04-25T05:29:53;2.27;;;2.00;;
13419;SDS011;6781;58.440;15.470;2023-04-25T05:32:20;3.83;;;2.63;;
13419;SDS011;6781;58.440;15.470;2023-04-25T05:34:47;2.53;;;2.33;;
13419;SDS011;6781;58.440;15.470;2023-04-25T05:37:15;2.90;;;2.57;;
13419;SDS011;6781;58.440;15.470;2023-04-25T05:39:44;2.77;;;2.57;;
13419;SDS011;6781;58.440;15.470;2023-04-25T05:42:11;3.93;;;3.13;;
13419;SDS011;6781;58.440;15.470;2023-04-25T05:44:39;4.23;;;2.90;;
13419;SDS011;6781;58.440;15.470;2023-04-25T05:47:06;3.23;;;2.93;;
13419;SDS011;6781;58.440;15.470;2023-04-25T05:49:33;4.67;;;3.33;;
13419;SDS011;6781;58.440;15.470;2023-04-25T05:52:01;3.77;;;2.80;;
13419;SDS011;6781;58.440;15.470;2023-04-25T05:54:28;5.40;;;3.10;;
13419;SDS011;6781;58.440;15.470;2023-04-25T05:56:57;3.20;;;2.83;;
13419;SDS011;6781;58.440;15.470;2023-04-25T05:59:24;4.13;;;3.10;;
13419;SDS011;6781;58.440;15.470;2023-04-25T06:01:52;3.50;;;3.20;;
13419;SDS011;6781;58.440;15.470;2023-04-25T06:04:20;3.80;;;3.37;;
13419;SDS011;6781;58.440;15.470;2023-04-25T06:06:47;3.17;;;2.87;;
13419;SDS011;6781;58.440;15.470;2023-04-25T06:09:14;3.07;;;2.80;;
13419;SDS011;6781;58.440;15.470;2023-04-25T06:11:41;2.73;;;2.53;;
13419;SDS011;6781;58.440;15.470;2023-04-25T06:14:10;3.10;;;2.77;;
13419;SDS011;6781;58.440;15.470;2023-04-25T06:16:37;3.97;;;2.77;;
13419;SDS011;6781;58.440;15.470;2023-04-25T06:19:04;3.03;;;2.60;;
13419;SDS011;6781;58.440;15.470;2023-04-25T06:21:31;3.70;;;2.30;;
13419;SDS011;6781;58.440;15.470;2023-04-25T06:23:58;2.63;;;2.43;;
13419;SDS011;6781;58.440;15.470;2023-04-25T06:26:25;2.70;;;2.50;;
13419;SDS011;6781;58.440;15.470;2023-04-25T06:28:52;3.00;;;2.40;;
13419;SDS011;6781;58.440;15.470;2023-04-25T06:31:21;2.90;;;2.70;;
13419;SDS011;6781;58.440;15.470;2023-04-25T06:33:48;3.60;;;3.30;;
13419;SDS011;6781;58.440;15.470;2023-04-25T06:36:15;3.20;;;2.90;;
13419;SDS011;6781;58.440;15.470;2023-04-25T06:38:43;4.10;;;3.53;;
13419;SDS011;6781;58.440;15.470;2023-04-25T06:41:10;3.90;;;3.30;;
13419;SDS011;6781;58.440;15.470;2023-04-25T06:43:37;3.50;;;2.87;;
13419;SDS011;6781;58.440;15.470;2023-04-25T06:46:04;3.60;;;3.30;;
13419;SDS011;6781;58.440;15.470;2023-04-25T06:48:33;4.03;;;3.53;;
13419;SDS011;6781;58.440;15.470;2023-04-25T06:51:00;3.60;;;3.30;;
13419;SDS011;6781;58.440;15.470;2023-04-25T06:53:27;3.60;;;3.27;;
13419;SDS011;6781;58.440;15.470;2023-04-25T06:55:54;3.40;;;3.10;;
13419;SDS011;6781;58.440;15.470;2023-04-25T06:58:21;3.33;;;3.03;;
13419;SDS011;6781;58.440;15.470;2023-04-25T07:00:48;4.13;;;3.50;;
13419;SDS011;6781;58.440;15.470;2023-04-25T07:03:15;3.90;;;3.60;;
13419;SDS011;6781;58.440;15.470;2023-04-25T07:05:44;3.63;;;3.30;;
13419;SDS011;6781;58.440;15.470;2023-04-25T07:08:11;4.17;;;3.47;;
13419;SDS011;6781;58.440;15.470;2023-04-25T07:10:38;4.67;;;3.20;;
13419;SDS011;6781;58.440;15.470;2023-04-25T07:13:05;3.20;;;2.90;;
13419;SDS011;6781;58.440;15.470;2023-04-25T07:15:32;3.67;;;3.27;;
13419;SDS011;6781;58.440;15.470;2023-04-25T07:18:00;3.17;;;2.87;;
13419;SDS011;6781;58.440;15.470;2023-04-25T07:20:27;4.13;;;3.20;;
13419;SDS011;6781;58.440;15.470;2023-04-25T07:22:57;3.53;;;3.23;;
13419;SDS011;6781;58.440;15.470;2023-04-25T07:25:24;3.57;;;3.20;;
13419;SDS011;6781;58.440;15.470;2023-04-25T07:27:51;3.57;;;3.27;;
13419;SDS011;6781;58.440;15.470;2023-04-25T07:30:18;3.77;;;3.47;;
13419;SDS011;6781;58.440;15.470;2023-04-25T07:32:45;3.27;;;3.00;;
13419;SDS011;6781;58.440;15.470;2023-04-25T07:35:12;3.17;;;2.87;;
13419;SDS011;6781;58.440;15.470;2023-04-25T07:37:40;3.20;;;2.90;;
13419;SDS011;6781;58.440;15.470;2023-04-25T07:40:09;3.20;;;2.90;;
13419;SDS011;6781;58.440;15.470;2023-04-25T07:42:37;3.43;;;2.87;;
13419;SDS011;6781;58.440;15.470;2023-04-25T07:45:05;3.70;;;3.00;;
13419;SDS011;6781;58.440;15.470;2023-04-25T07:47:32;3.37;;;3.07;;
13419;SDS011;6781;58.440;15.470;2023-04-25T07:49:59;3.70;;;2.40;;
13419;SDS011;6781;58.440;15.470;2023-04-25T07:52:26;4.63;;;2.30;;
13419;SDS011;6781;58.440;15.470;2023-04-25T07:54:53;2.75;;;2.45;;
13419;SDS011;6781;58.440;15.470;2023-04-25T07:57:22;2.33;;;2.13;;
13419;SDS011;6781;58.440;15.470;2023-04-25T07:59:49;2.70;;;2.50;;
13419;SDS011;6781;58.440;15.470;2023-04-25T08:02:16;2.50;;;2.30;;
13419;SDS011;6781;58.440;15.470;2023-04-25T08:04:43;2.65;;;2.45;;
13419;SDS011;6781;58.440;15.470;2023-04-25T08:07:10;2.97;;;2.78;;
13419;SDS011;6781;58.440;15.470;2023-04-25T08:09:37;2.80;;;2.60;;
13419;SDS011;6781;58.440;15.470;2023-04-25T08:12:04;2.63;;;2.38;;
13419;SDS011;6781;58.440;15.470;2023-04-25T08:14:33;2.65;;;2.45;;
13419;SDS011;6781;58.440;15.470;2023-04-25T08:17:02;2.88;;;2.67;;
13419;SDS011;6781;58.440;15.470;2023-04-25T08:19:30;2.90;;;2.70;;
13419;SDS011;6781;58.440;15.470;2023-04-25T08:21:57;2.90;;;2.67;;
13419;SDS011;6781;58.440;15.470;2023-04-25T08:24:24;3.20;;;2.90;;
13419;SDS011;6781;58.440;15.470;2023-04-25T08:26:51;3.75;;;2.75;;
13419;SDS011;6781;58.440;15.470;2023-04-25T08:29:19;2.95;;;2.67;;
13419;SDS011;6781;58.440;15.470;2023-04-25T08:31:47;4.13;;;2.88;;
13419;SDS011;6781;58.440;15.470;2023-04-25T08:34:14;3.05;;;2.78;;
13419;SDS011;6781;58.440;15.470;2023-04-25T08:36:41;2.78;;;2.58;;
13419;SDS011;6781;58.440;15.470;2023-04-25T08:39:08;3.30;;;2.92;;
13419;SDS011;6781;58.440;15.470;2023-04-25T08:41:36;3.20;;;2.90;;
13419;SDS011;6781;58.440;15.470;2023-04-25T08:44:03;3.03;;;2.72;;
13419;SDS011;6781;58.440;15.470;2023-04-25T08:46:31;3.28;;;3.00;;
13419;SDS011;6781;58.440;15.470;2023-04-25T08:49:01;3.53;;;3.20;;
13419;SDS011;6781;58.440;15.470;2023-04-25T08:51:30;3.75;;;2.88;;
13419;SDS011;6781;58.440;15.470;2023-04-25T08:54:01;3.70;;;2.63;;
13419;SDS011;6781;58.440;15.470;2023-04-25T08:56:35;3.15;;;2.85;;
13419;SDS011;6781;58.440;15.470;2023-04-25T08:59:02;2.83;;;2.63;;
13419;SDS011;6781;58.440;15.470;2023-04-25T09:01:29;3.45;;;3.15;;
13419;SDS011;6781;58.440;15.470;2023-04-25T09:03:57;3.53;;;3.03;;
13419;SDS011;6781;58.440;15.470;2023-04-25T09:06:25;3.50;;;2.83;;
13419;SDS011;6781;58.440;15.470;2023-04-25T09:08:53;3.15;;;2.95;;
13419;SDS011;6781;58.440;15.470;2023-04-25T09:11:20;3.28;;;2.97;;
13419;SDS011;6781;58.440;15.470;2023-04-25T09:13:47;3.97;;;3.20;;
13419;SDS011;6781;58.440;15.470;2023-04-25T09:16:14;3.72;;;3.38;;
13419;SDS011;6781;58.440;15.470;2023-04-25T09:18:44;3.55;;;3.25;;
13419;SDS011;6781;58.440;15.470;2023-04-25T09:21:14;2.70;;;2.50;;
13419;SDS011;6781;58.440;15.470;2023-04-25T09:23:44;3.50;;;3.20;;
13419;SDS011;6781;58.440;15.470;2023-04-25T09:26:14;3.40;;;3.10;;
13419;SDS011;6781;58.440;15.470;2023-04-25T09:28:42;3.85;;;3.55;;
13419;SDS011;6781;58.440;15.470;2023-04-25T09:31:10;3.67;;;3.38;;
13419;SDS011;6781;58.440;15.470;2023-04-25T09:33:37;4.10;;;3.70;;
13419;SDS011;6781;58.440;15.470;2023-04-25T09:36:05;5.20;;;3.78;;
13419;SDS011;6781;58.440;15.470;2023-04-25T09:38:40;4.47;;;3.38;;
13419;SDS011;6781;58.440;15.470;2023-04-25T09:41:10;6.18;;;4.38;;
13419;SDS011;6781;58.440;15.470;2023-04-25T09:43:38;5.10;;;3.88;;
13419;SDS011;6781;58.440;15.470;2023-04-25T09:46:07;4.25;;;3.78;;
13419;SDS011;6781;58.440;15.470;2023-04-25T09:48:36;4.95;;;3.70;;
13419;SDS011;6781;58.440;15.470;2023-04-25T09:51:04;5.82;;;4.40;;
13419;SDS011;6781;58.440;15.470;2023-04-25T09:53:32;6.68;;;4.30;;
13419;SDS011;6781;58.440;15.470;2023-04-25T09:55:59;5.03;;;4.40;;
13419;SDS011;6781;58.440;15.470;2023-04-25T09:58:30;4.68;;;4.28;;
13419;SDS011;6781;58.440;15.470;2023-04-25T10:00:59;5.20;;;4.63;;
13419;SDS011;6781;58.440;15.470;2023-04-25T10:03:27;5.55;;;4.25;;
13419;SDS011;6781;58.440;15.470;2023-04-25T10:05:56;5.07;;;4.68;;
13419;SDS011;6781;58.440;15.470;2023-04-25T10:08:25;4.78;;;4.38;;
13419;SDS011;6781;58.440;15.470;2023-04-25T10:10:56;5.47;;;4.85;;
13419;SDS011;6781;58.440;15.470;2023-04-25T10:13:23;5.90;;;5.38;;
13419;SDS011;6781;58.440;15.470;2023-04-25T10:15:52;5.93;;;5.32;;
13419;SDS011;6781;58.440;15.470;2023-04-25T10:18:20;5.90;;;5.40;;
13419;SDS011;6781;58.440;15.470;2023-04-25T10:20:48;6.07;;;5.47;;
13419;SDS011;6781;58.440;15.470;2023-04-25T10:23:15;5.70;;;5.20;;
13419;SDS011;6781;58.440;15.470;2023-04-25T10:25:42;5.35;;;4.85;;
13419;SDS011;6781;58.440;15.470;2023-04-25T10:28:10;5.50;;;4.93;;
13419;SDS011;6781;58.440;15.470;2023-04-25T10:30:37;5.65;;;5.13;;
13419;SDS011;6781;58.440;15.470;2023-04-25T10:33:30;6.07;;;5.47;;
13419;SDS011;6781;58.440;15.470;2023-04-25T10:36:08;6.05;;;5.45;;
13419;SDS011;6781;58.440;15.470;2023-04-25T10:38:36;5.03;;;4.53;;
13419;SDS011;6781;58.440;15.470;2023-04-25T10:41:04;5.25;;;4.75;;
13419;SDS011;6781;58.440;15.470;2023-04-25T10:43:34;5.68;;;4.95;;
13419;SDS011;6781;58.440;15.470;2023-04-25T10:46:15;4.80;;;4.40;;
13419;SDS011;6781;58.440;15.470;2023-04-25T10:48:48;5.47;;;4.97;;
13419;SDS011;6781;58.440;15.470;2023-04-25T10:51:16;5.88;;;4.75;;
13419;SDS011;6781;58.440;15.470;2023-04-25T10:53:45;5.60;;;5.00;;
13419;SDS011;6781;58.440;15.470;2023-04-25T10:56:16;5.53;;;4.95;;
13419;SDS011;6781;58.440;15.470;2023-04-25T10:58:44;5.95;;;5.15;;
13419;SDS011;6781;58.440;15.470;2023-04-25T11:01:11;5.78;;;5.18;;
13419;SDS011;6781;58.440;15.470;2023-04-25T11:03:43;5.43;;;4.93;;
13419;SDS011;6781;58.440;15.470;2023-04-25T11:06:15;7.45;;;5.60;;
13419;SDS011;6781;58.440;15.470;2023-04-25T11:08:50;6.43;;;5.32;;
13419;SDS011;6781;58.440;15.470;2023-04-25T11:11:18;6.53;;;5.75;;
13419;SDS011;6781;58.440;15.470;2023-04-25T11:13:47;6.25;;;5.65;;
13419;SDS011;6781;58.440;15.470;2023-04-25T11:16:15;6.57;;;5.47;;
13419;SDS011;6781;58.440;15.470;2023-04-25T11:18:42;6.43;;;5.82;;
13419;SDS011;6781;58.440;15.470;2023-04-25T11:21:09;6.32;;;5.30;;
13419;SDS011;6781;58.440;15.470;2023-04-25T11:23:38;6.13;;;5.57;;
13419;SDS011;6781;58.440;15.470;2023-04-25T11:26:05;5.88;;;5.32;;
13419;SDS011;6781;58.440;15.470;2023-04-25T11:28:33;7.60;;;5.85;;
13419;SDS011;6781;58.440;15.470;2023-04-25T11:31:00;6.53;;;5.90;;
13419;SDS011;6781;58.440;15.470;2023-04-25T11:33:28;6.78;;;6.05;;
13419;SDS011;6781;58.440;15.470;2023-04-25T11:35:55;6.40;;;5.68;;
13419;SDS011;6781;58.440;15.470;2023-04-25T11:38:24;6.15;;;5.55;;
13419;SDS011;6781;58.440;15.470;2023-04-25T11:40:53;7.25;;;6.03;;
13419;SDS011;6781;58.440;15.470;2023-04-25T11:43:20;6.50;;;5.40;;
13419;SDS011;6781;58.440;15.470;2023-04-25T11:45:48;6.88;;;6.05;;
13419;SDS011;6781;58.440;15.470;2023-04-25T11:48:16;5.85;;;5.25;;
13419;SDS011;6781;58.440;15.470;2023-04-25T11:50:44;6.20;;;5.60;;
13419;SDS011;6781;58.440;15.470;2023-04-25T11:53:11;6.47;;;5.88;;
13419;SDS011;6781;58.440;15.470;2023-04-25T11:55:40;5.78;;;5.18;;
13419;SDS011;6781;58.440;15.470;2023-04-25T11:58:11;6.93;;;6.20;;
13419;SDS011;6781;58.440;15.470;2023-04-25T12:00:41;6.63;;;5.95;;
13419;SDS011;6781;58.440;15.470;2023-04-25T12:03:08;6.82;;;5.70;;
13419;SDS011;6781;58.440;15.470;2023-04-25T12:05:36;7.50;;;6.45;;
13419;SDS011;6781;58.440;15.470;2023-04-25T12:08:11;6.88;;;6.18;;
13419;SDS011;6781;58.440;15.470;2023-04-25T12:10:39;6.30;;;5.70;;
13419;SDS011;6781;58.440;15.470;2023-04-25T12:13:19;6.75;;;6.05;;
13419;SDS011;6781;58.440;15.470;2023-04-25T12:15:47;7.03;;;6.00;;
13419;SDS011;6781;58.440;15.470;2023-04-25T12:18:14;7.93;;;6.03;;
13419;SDS011;6781;58.440;15.470;2023-04-25T12:20:41;6.30;;;5.80;;
13419;SDS011;6781;58.440;15.470;2023-04-25T12:23:09;5.47;;;4.97;;
13419;SDS011;6781;58.440;15.470;2023-04-25T12:25:38;5.65;;;5.05;;
13419;SDS011;6781;58.440;15.470;2023-04-25T12:30:32;5.70;;;5.15;;
13419;SDS011;6781;58.440;15.470;2023-04-25T12:33:19;5.35;;;4.85;;
13419;SDS011;6781;58.440;15.470;2023-04-25T12:35:46;7.35;;;4.90;;
13419;SDS011;6781;58.440;15.470;2023-04-25T12:38:20;5.78;;;4.80;;
13419;SDS011;6781;58.440;15.470;2023-04-25T12:40:48;5.78;;;4.60;;
13419;SDS011;6781;58.440;15.470;2023-04-25T12:43:24;4.90;;;4.50;;
13419;SDS011;6781;58.440;15.470;2023-04-25T12:45:55;5.18;;;4.75;;
13419;SDS011;6781;58.440;15.470;2023-04-25T12:48:23;5.53;;;5.03;;
13419;SDS011;6781;58.440;15.470;2023-04-25T12:50:50;4.53;;;4.07;;
13419;SDS011;6781;58.440;15.470;2023-04-25T12:53:18;4.90;;;4.45;;
13419;SDS011;6781;58.440;15.470;2023-04-25T12:55:49;4.72;;;4.32;;
13419;SDS011;6781;58.440;15.470;2023-04-25T12:58:18;4.85;;;4.38;;
13419;SDS011;6781;58.440;15.470;2023-04-25T13:00:46;5.28;;;4.40;;
13419;SDS011;6781;58.440;15.470;2023-04-25T13:03:15;4.75;;;4.22;;
13419;SDS011;6781;58.440;15.470;2023-04-25T13:05:43;5.35;;;3.92;;
13419;SDS011;6781;58.440;15.470;2023-04-25T13:08:11;4.53;;;4.13;;
13419;SDS011;6781;58.440;15.470;2023-04-25T13:10:38;5.05;;;4.18;;
13419;SDS011;6781;58.440;15.470;2023-04-25T13:13:05;4.35;;;3.95;;
13419;SDS011;6781;58.440;15.470;2023-04-25T13:15:35;5.18;;;4.28;;
13419;SDS011;6781;58.440;15.470;2023-04-25T13:18:03;4.80;;;4.40;;
13419;SDS011;6781;58.440;15.470;2023-04-25T13:20:32;5.10;;;4.70;;
13419;SDS011;6781;58.440;15.470;2023-04-25T13:22:59;4.70;;;4.30;;
13419;SDS011;6781;58.440;15.470;2023-04-25T13:25:26;4.93;;;4.07;;
13419;SDS011;6781;58.440;15.470;2023-04-25T13:27:53;5.15;;;4.65;;
13419;SDS011;6781;58.440;15.470;2023-04-25T13:30:21;4.80;;;4.38;;
13419;SDS011;6781;58.440;15.470;2023-04-25T13:32:48;4.43;;;4.03;;
13419;SDS011;6781;58.440;15.470;2023-04-25T13:35:17;5.15;;;4.65;;
13419;SDS011;6781;58.440;15.470;2023-04-25T13:37:46;5.07;;;4.30;;
13419;SDS011;6781;58.440;15.470;2023-04-25T13:40:14;5.18;;;4.07;;
13419;SDS011;6781;58.440;15.470;2023-04-25T13:42:41;4.85;;;4.35;;
13419;SDS011;6781;58.440;15.470;2023-04-25T13:45:10;4.85;;;4.38;;
13419;SDS011;6781;58.440;15.470;2023-04-25T13:47:38;4.68;;;4.28;;
13419;SDS011;6781;58.440;15.470;2023-04-25T13:50:07;4.30;;;3.90;;
13419;SDS011;6781;58.440;15.470;2023-04-25T13:52:38;5.30;;;4.80;;
13419;SDS011;6781;58.440;15.470;2023-04-25T13:55:08;4.85;;;4.38;;
13419;SDS011;6781;58.440;15.470;2023-04-25T13:57:36;4.32;;;3.92;;
13419;SDS011;6781;58.440;15.470;2023-04-25T14:00:04;4.60;;;4.20;;
13419;SDS011;6781;58.440;15.470;2023-04-25T14:02:33;4.97;;;4.30;;
13419;SDS011;6781;58.440;15.470;2023-04-25T14:05:01;4.28;;;3.88;;
13419;SDS011;6781;58.440;15.470;2023-04-25T14:07:30;4.13;;;3.83;;
13419;SDS011;6781;58.440;15.470;2023-04-25T14:09:58;4.00;;;3.60;;
13419;SDS011;6781;58.440;15.470;2023-04-25T14:15:10;4.82;;;4.35;;
13419;SDS011;6781;58.440;15.470;2023-04-25T14:17:51;4.63;;;4.22;;
13419;SDS011;6781;58.440;15.470;2023-04-25T14:20:33;4.90;;;4.40;;
13419;SDS011;6781;58.440;15.470;2023-04-25T14:23:01;4.38;;;4.03;;
13419;SDS011;6781;58.440;15.470;2023-04-25T14:25:34;5.20;;;4.20;;
13419;SDS011;6781;58.440;15.470;2023-04-25T15:00:19;5.55;;;4.15;;
13419;SDS011;6781;58.440;15.470;2023-04-25T15:02:55;4.25;;;3.90;;
13419;SDS011;6781;58.440;15.470;2023-04-25T15:05:38;4.97;;;4.47;;
13419;SDS011;6781;58.440;15.470;2023-04-25T15:08:05;3.70;;;3.40;;
13419;SDS011;6781;58.440;15.470;2023-04-25T15:10:36;4.05;;;3.75;;
13419;SDS011;6781;58.440;15.470;2023-04-25T15:13:04;4.85;;;4.45;;
13419;SDS011;6781;58.440;15.470;2023-04-25T15:15:34;4.60;;;4.20;;
13419;SDS011;6781;58.440;15.470;2023-04-25T15:18:01;4.25;;;3.85;;
13419;SDS011;6781;58.440;15.470;2023-04-25T15:20:29;4.60;;;4.20;;
13419;SDS011;6781;58.440;15.470;2023-04-25T15:22:56;4.10;;;3.72;;
13419;SDS011;6781;58.440;15.470;2023-04-25T15:25:25;4.72;;;4.32;;
13419;SDS011;6781;58.440;15.470;2023-04-25T15:27:56;4.45;;;4.15;;
13419;SDS011;6781;58.440;15.470;2023-04-25T15:30:23;4.60;;;4.20;;
13419;SDS011;6781;58.440;15.470;2023-04-25T15:32:55;5.78;;;4.10;;
13419;SDS011;6781;58.440;15.470;2023-04-25T15:35:22;4.32;;;3.92;;